Latest Coastal Weather Observations for Centre Island

IDD60701

Issued at 8:41 pm CST Monday 4 March 2024 (issued every 10 minutes, with the page automatically refreshed every 10 minutes)

About coastal observations | Map of coastal stations | Coastal observations for NT | Marine services | Other Formats
Station Details ID: 014703 Name: CENTRE ISLAND Lat: -15.74 Lon: 136.82 Height: 12.2 m
Data from the previous 72 hours. | See also: Recent months at Centre Island
Date/Time
CST
Wind Sea
Height
m
Swell Vis
km
Cloud Weather Temp
°C
Press
MSL
hPa
Rain since
9am
mm
Dir  Spd
kts
Gust
kts
Height
m
Period
s
Dir
04/08:30pm E 12 16 - - - - - - - 29.3 1009.9 16.2
04/08:00pm ENE 11 13 - - - - - - - 29.3 1009.8 16.2
04/07:30pm ENE 7 11 - - - - - - - 29.1 1009.5 16.2
04/07:00pm E 5 7 - - - - - - - 28.8 1009.2 16.2
04/06:30pm E 5 6 - - - - - - - 28.7 1008.3 16.2
04/06:00pm E 5 6 - - - - - - - 28.9 1008.1 16.2
04/05:30pm NNE 9 11 - - - - - - - 28.9 1008.1 16.2
04/05:00pm NNE 11 13 - - - - - - - 28.8 1007.9 16.2
04/04:30pm NNE 12 17 - - - - - - - 29.0 1008.1 16.2
04/04:00pm NE 23 29 - - - - - - - 28.7 1008.3 16.2
04/03:30pm ENE 27 36 - - - - - - - 28.7 1008.3 16.2
04/03:24pm ENE 18 34 - - - - - - - 30.6 1008.3 16.2
04/03:00pm NE 13 15 - - - - - - Recent precip. 29.9 1008.5 16.2
04/02:30pm NE 13 17 - - - - - - - 27.9 1008.7 16.2
04/02:00pm NE 19 30 - - - - - - - 27.8 1008.8 10.8
04/01:54pm NNE 11 22 - - - - - - - 28.5 1009.2 10.8
04/01:30pm ENE 15 23 - - - - - - - 27.5 1009.4 7.2
04/01:25pm NE 18 23 - - - - - - - 27.8 1009.4 3.2
04/01:00pm NE 9 13 - - - - - - - 32.8 1009.4 0.0
04/12:30pm NNE 13 18 - - - - - - - 31.8 1009.8 0.0
04/12:12pm ENE 13 24 - - - - - - - 30.8 1010.1 0.0
04/12:00pm E 12 14 - - - - - - - 33.4 1010.2 0.0
04/11:30am E 13 16 - - - - - - - 33.6 1010.6 0.0
04/11:00am E 13 15 - - - - - - - 33.5 1010.8 0.0
04/10:30am ESE 9 11 - - - - - - - 32.4 1011.0 0.0
04/10:00am ESE 10 12 - - - - - - - 32.1 1011.3 0.0
04/09:30am ESE 10 13 - - - - - - - 31.6 1011.2 0.0
04/09:00am SE 11 13 - - - - - - - 30.3 1011.2 0.0
04/08:30am SE 10 11 - - - - - - - 31.0 1011.0 0.0
04/08:00am SE 10 12 - - - - - - - 30.6 1010.6 0.0
04/07:30am SE 9 11 - - - - - - - 30.2 1010.2 0.0
04/07:00am SE 9 11 - - - - - - - 29.7 1010.1 0.0
04/06:30am SE 8 10 - - - - - - - 29.3 1010.0 0.0
04/06:00am ESE 8 9 - - - - - - - 29.3 1010.0 0.0
04/05:30am ESE 8 10 - - - - - - - 29.3 1009.7 0.0
04/05:00am ESE 7 9 - - - - - - - 29.5 1009.6 0.0
04/04:30am E 5 7 - - - - - - - 29.5 1009.4 0.0
04/04:00am E 4 5 - - - - - - - 29.3 1009.3 0.0
04/03:30am E 4 5 - - - - - - - 29.3 1009.4 0.0
04/03:00am ESE 4 6 - - - - - - - 29.5 1009.4 0.0
04/02:30am E 5 6 - - - - - - - 29.5 1009.6 0.0
04/02:00am ESE 5 6 - - - - - - - 29.5 1009.7 0.0
04/01:30am ESE 4 6 - - - - - - - 29.4 1010.0 0.0
04/01:00am ESE 3 5 - - - - - - - 29.5 1010.2 0.0
04/12:30am E 4 5 - - - - - - - 29.6 1010.4 0.0
04/12:00am E 5 6 - - - - - - - 29.6 1010.5 0.0
 
Date/Time
CST
Wind Sea
Height
m
Swell Vis
km
Cloud Weather Temp
°C
Press
MSL
hPa
Rain since
9am
mm
Dir  Spd
kts
Gust
kts
Height
m
Period
s
Dir
03/11:30pm ENE 5 7 - - - - - - - 29.7 1010.6 0.0
03/11:00pm ENE 6 7 - - - - - - - 29.8 1010.7 0.0
03/10:30pm NE 6 8 - - - - - - - 30.0 1010.8 0.0
03/10:00pm NE 8 10 - - - - - - - 30.1 1010.7 0.0
03/09:30pm ENE 10 12 - - - - - - - 30.2 1010.3 0.0
03/09:00pm NE 10 12 - - - - - - - 30.2 1009.9 0.0
03/08:30pm NE 9 11 - - - - - - - 30.2 1009.2 0.0
03/08:00pm NE 9 11 - - - - - - - 30.3 1008.8 0.0
03/07:30pm NNE 8 11 - - - - - - - 30.3 1008.4 0.0
03/07:00pm NNE 7 8 - - - - - - - 30.5 1008.2 0.0
03/06:30pm NNE 7 10 - - - - - - - 30.7 1008.0 0.0
03/06:00pm NNE 9 11 - - - - - - - 31.2 1008.1 0.0
03/05:30pm NNE 9 12 - - - - - - - 31.7 1008.1 0.0
03/05:00pm NNE 9 12 - - - - - - - 32.3 1007.9 0.0
03/04:30pm NNE 10 12 - - - - - - - 32.2 1007.9 0.0
03/04:00pm NNE 10 12 - - - - - - - 32.6 1008.4 0.0
03/03:30pm NNE 8 11 - - - - - - - 33.4 1008.7 0.0
03/03:00pm NNE 6 8 - - - - - - - 33.1 1009.1 0.0
03/02:30pm NE 7 8 - - - - - - - 32.8 1009.2 0.0
03/02:00pm NE 5 6 - - - - - - - 32.4 1009.5 0.0
03/01:30pm ENE 4 6 - - - - - - - 32.3 1009.7 0.0
03/01:00pm ENE 5 7 - - - - - - - 32.4 1010.2 0.0
03/12:30pm ESE 4 6 - - - - - - - 32.0 1010.8 0.0
03/12:00pm S 3 5 - - - - - - - 31.9 1011.0 0.0
03/11:30am W 4 6 - - - - - - - 32.0 1011.5 0.0
03/11:00am SSW 4 6 - - - - - - - 31.9 1011.9 0.0
03/10:30am SSE 5 6 - - - - - - - 31.6 1012.0 0.0
03/10:00am S 6 8 - - - - - - - 31.3 1012.3 0.0
03/09:30am S 5 7 - - - - - - - 31.5 1012.2 0.0
03/09:00am S 6 7 - - - - - - - 31.1 1012.1 0.0
03/08:30am S 5 6 - - - - - - - 30.7 1011.9 0.0
03/08:00am S 6 7 - - - - - - - 30.3 1011.5 0.0
03/07:30am SSW 7 9 - - - - - - - 29.6 1011.0 0.0
03/07:00am SSW 6 7 - - - - - - - 29.0 1010.8 0.0
03/06:30am S 6 8 - - - - - - - 28.6 1010.3 0.0
03/06:00am S 7 8 - - - - - - - 28.7 1009.9 0.0
03/05:30am SSW 7 9 - - - - - - - 28.7 1009.8 0.0
03/05:00am SW 5 7 - - - - - - - 28.7 1009.6 0.0
03/04:30am W 4 5 - - - - - - - 28.5 1009.4 0.0
03/04:00am CALM 0 0 - - - - - - - 28.5 1009.5 0.0
03/03:30am CALM 0 3 - - - - - - - 28.6 1009.4 0.0
03/03:00am WNW 3 4 - - - - - - - 28.5 1009.7 0.0
03/02:30am NW 3 4 - - - - - - - 28.5 1009.9 0.0
03/02:00am W 4 4 - - - - - - - 28.8 1010.1 0.0
03/01:30am WNW 4 5 - - - - - - - 28.8 1010.2 0.0
03/01:00am NW 3 3 - - - - - - - 28.6 1010.1 0.0
03/12:30am NW 3 4 - - - - - - - 28.6 1010.2 0.0
03/12:00am NNW 3 4 - - - - - - - 29.0 1010.6 0.0
 
Date/Time
CST
Wind Sea
Height
m
Swell Vis
km
Cloud Weather Temp
°C
Press
MSL
hPa
Rain since
9am
mm
Dir  Spd
kts
Gust
kts
Height
m
Period
s
Dir
02/11:30pm N 5 7 - - - - - - - 29.5 1010.7 0.0
02/11:00pm NNE 7 9 - - - - - - - 29.6 1010.6 0.0
02/10:30pm NNE 8 10 - - - - - - - 29.7 1010.6 0.0
02/10:00pm NNE 9 11 - - - - - - - 29.7 1010.5 0.0
02/09:30pm NNE 9 11 - - - - - - - 29.8 1010.2 0.0
02/09:00pm NNE 7 9 - - - - - - - 29.8 1010.4 0.0
02/08:30pm NNE 8 10 - - - - - - - 29.7 1010.0 0.0
02/08:00pm NNE 9 12 - - - - - - - 29.8 1009.7 0.0
02/07:30pm NNE 9 11 - - - - - - - 29.8 1009.5 0.0
02/07:00pm NNE 10 12 - - - - - - - 29.9 1009.0 0.0
02/06:30pm NE 12 15 - - - - - - - 30.2 1008.6 0.0
02/06:00pm NE 11 15 - - - - - - - 30.5 1008.1 0.0
02/05:30pm NE 13 17 - - - - - - - 31.0 1007.9 0.0
02/05:00pm NE 15 18 - - - - - - - 31.4 1007.6 0.0
02/04:30pm NE 16 19 - - - - - - - 31.2 1007.7 0.0
02/04:00pm NE 15 17 - - - - - - - 31.9 1007.6 0.0
02/03:30pm NE 15 19 - - - - - - - 32.4 1008.1 0.0
02/03:00pm NNE 14 17 - - - - - - - 32.6 1008.3 0.0
02/02:30pm NNE 14 18 - - - - - - - 32.7 1008.5 0.0
02/02:00pm NE 15 19 - - - - - - - 32.4 1008.8 0.0
02/01:30pm ENE 13 17 - - - - - - - 33.2 1009.2 0.0
02/01:00pm E 13 16 - - - - - - - 33.7 1009.5 0.0
02/12:30pm E 11 13 - - - - - - - 33.6 1009.7 0.0
02/12:00pm ESE 15 18 - - - - - - - 32.4 1010.1 0.0
02/11:30am ESE 13 16 - - - - - - - 32.4 1010.3 0.0
02/11:00am ESE 12 13 - - - - - - - 32.6 1010.7 0.0
02/10:30am ESE 12 14 - - - - - - - 32.0 1011.0 0.0
02/10:00am ESE 11 13 - - - - - - - 31.3 1011.1 0.0
02/09:30am ESE 11 12 - - - - - - - 31.1 1011.1 0.0
02/09:00am ESE 9 10 - - - - - - - 30.3 1011.2 0.0
02/08:30am SE 9 11 - - - - - - - 29.9 1011.1 0.0
02/08:00am SE 10 11 - - - - - - - 29.7 1010.7 0.0
02/07:30am ESE 11 12 - - - - - - - 29.3 1010.4 0.0
02/07:00am ESE 9 12 - - - - - - - 28.6 1010.2 0.0
02/06:30am SE 11 12 - - - - - - - 28.2 1009.7 0.0
02/06:00am SE 10 11 - - - - - - - 28.2 1009.3 0.0
02/05:30am SSE 11 12 - - - - - - - 28.3 1009.0 0.0
02/05:00am SSE 9 11 - - - - - - - 28.5 1008.9 0.0
02/04:30am SE 9 10 - - - - - - - 28.5 1008.4 0.0
02/04:00am SE 8 10 - - - - - - - 28.6 1008.2 0.0
02/03:30am SE 7 9 - - - - - - - 28.9 1008.0 0.0
02/03:00am ESE 6 7 - - - - - - - 28.9 1008.1 0.0
02/02:30am E 6 7 - - - - - - - 29.0 1008.3 0.0
02/02:00am ENE 6 7 - - - - - - - 29.0 1008.7 0.0
02/01:30am ENE 8 9 - - - - - - - 29.2 1008.7 0.0
02/01:00am ENE 9 11 - - - - - - - 29.2 1008.7 0.0
02/12:30am ENE 11 13 - - - - - - - 29.3 1008.8 0.0
02/12:00am E 10 13 - - - - - - - 29.3 1009.1 0.0
 
Date/Time
CST
Wind Sea
Height
m
Swell Vis
km
Cloud Weather Temp
°C
Press
MSL
hPa
Rain since
9am
mm
Dir  Spd
kts
Gust
kts
Height
m
Period
s
Dir
01/11:30pm ENE 10 12 - - - - - - - 29.6 1009.4 0.0
01/11:00pm ENE 10 12 - - - - - - - 29.5 1009.7 0.0
01/10:30pm ENE 10 13 - - - - - - - 29.6 1010.1 0.0
01/10:00pm ENE 11 13 - - - - - - - 29.7 1010.0 0.0
01/09:30pm ENE 10 13 - - - - - - - 29.8 1009.7 0.0
01/09:00pm ENE 11 13 - - - - - - - 29.9 1009.3 0.0

Other formats

Comma delimited format used in spreadsheet applications
http://www.bom.gov.au/fwo/IDD60701/IDD60701.94248.axf

JavaScript Object Notation format (JSON) in row-major order
http://www.bom.gov.au/fwo/IDD60701/IDD60701.94248.json

Data quality

Most of these data are generated automatically and are frequently updated. Quality checks on data are not normally performed. It is possible for incorrect values to appear. Refer to information at About Latest Weather Observations and please check the disclaimer before using these data.